Tolland, Connecticut
Current Conditions -  °F | °C
As of 6:52 AM on Wednesday 28 Jan 2015 (Local Time) from KIJD Reporting Station
Overcast Overcast  
Wind Chill:   Ceiling: 4500
Heat Index: 14°   Visibility: 10mi
Dew Point:   Wind: 8mph
Humidity: 54%   Direction: 330°NNW
Pressure: 29.91"   Gusts: NA
Location:  41.87°N, 72.37°W
Report Text: KIJD 281152Z AUTO 33007KT 10SM OVC045 M10/M18 A2991 RMK AO2 SLP131 60000 70001 T11001178 11100 21106 53031
Loading
Personal Weather Stations






























Interactive Weather Map New forecast layout! Learn more

10-Day Weather Forecast

Advertisements
Track Severe Weather on mobile